createdAt,value
2022-12-13T00:00:53.655Z,50.834846
2022-12-13T00:01:53.736Z,50.834854
2022-12-13T00:02:53.631Z,50.834885
2022-12-13T00:03:53.651Z,50.834885
2022-12-13T00:04:53.621Z,50.834873
2022-12-13T00:05:53.627Z,50.834866
2022-12-13T00:06:53.613Z,50.834850
2022-12-13T00:07:53.663Z,50.834854
2022-12-13T00:08:53.615Z,50.834869
2022-12-13T00:09:53.583Z,50.834869
2022-12-13T00:10:53.581Z,50.834846
2022-12-13T00:11:53.613Z,50.834866
2022-12-13T00:12:53.634Z,50.834881
2022-12-13T00:13:53.594Z,50.834881
2022-12-13T00:14:53.548Z,50.834900
2022-12-13T00:15:53.544Z,50.834877
2022-12-13T00:16:53.563Z,50.834850
2022-12-13T00:17:53.528Z,50.834862
2022-12-13T00:18:53.534Z,50.834862
2022-12-13T00:19:53.530Z,50.834862
2022-12-13T00:20:53.512Z,50.834858
2022-12-13T00:21:53.532Z,50.834873
2022-12-13T00:22:53.505Z,50.834885
2022-12-13T00:23:53.489Z,50.834885
2022-12-13T00:24:53.475Z,50.834881
2022-12-13T00:25:53.500Z,50.834873
2022-12-13T00:26:53.465Z,50.834892
2022-12-13T00:27:53.452Z,50.834885
2022-12-13T00:28:53.459Z,50.834888
2022-12-13T00:29:53.426Z,50.834881
2022-12-13T00:30:53.446Z,50.834869
2022-12-13T00:32:00.047Z,50.834877
2022-12-13T00:32:55.450Z,50.834854
2022-12-13T00:33:53.430Z,50.834866
2022-12-13T00:34:53.430Z,50.834866
2022-12-13T00:35:53.384Z,50.834850
2022-12-13T00:36:53.400Z,50.834892
2022-12-13T00:37:53.393Z,50.834877
2022-12-13T00:38:53.368Z,50.834877
2022-12-13T00:39:53.372Z,50.834866
2022-12-13T00:40:53.346Z,50.834854
2022-12-13T00:41:53.374Z,50.834835
2022-12-13T00:42:53.354Z,50.834839
2022-12-13T00:43:54.332Z,50.834835
2022-12-13T00:44:53.351Z,50.834839
2022-12-13T00:45:53.390Z,50.834862
2022-12-13T00:46:53.344Z,50.834839
2022-12-13T00:47:53.315Z,50.834846
2022-12-13T00:48:53.310Z,50.834862
2022-12-13T00:49:53.283Z,50.834839
2022-12-13T00:50:53.301Z,50.834843
2022-12-13T00:51:53.364Z,50.834839
2022-12-13T00:52:53.275Z,50.834839
2022-12-13T00:53:53.255Z,50.834881
2022-12-13T00:54:53.300Z,50.834846
2022-12-13T00:55:53.233Z,50.834843
2022-12-13T00:56:53.261Z,50.834835
2022-12-13T00:57:53.285Z,50.834827
2022-12-13T00:58:53.226Z,50.834843
2022-12-13T00:59:53.206Z,50.834839
2022-12-13T01:00:53.206Z,50.834846
2022-12-13T01:01:53.266Z,50.834827
2022-12-13T01:02:53.188Z,50.834824
2022-12-13T01:03:53.203Z,50.834812
2022-12-13T01:04:53.186Z,50.834831
2022-12-13T01:06:17.625Z,50.834839
2022-12-13T01:06:55.842Z,50.834866
2022-12-13T01:07:53.191Z,50.834885
2022-12-13T01:08:53.159Z,50.834843
2022-12-13T01:09:53.129Z,50.834854
2022-12-13T01:10:53.147Z,50.834858
2022-12-13T01:11:53.161Z,50.834827
2022-12-13T01:12:53.138Z,50.834820
2022-12-13T01:13:53.863Z,50.834839
2022-12-13T01:14:56.032Z,50.834827
2022-12-13T01:15:54.098Z,50.834797
2022-12-13T01:16:53.176Z,50.834831
2022-12-13T01:17:53.106Z,50.834824
2022-12-13T01:18:53.061Z,50.834801
2022-12-13T01:19:53.135Z,50.834835
2022-12-13T01:20:53.104Z,50.834827
2022-12-13T01:21:53.048Z,50.834843
2022-12-13T01:22:53.062Z,50.834797
2022-12-13T01:23:53.046Z,50.834824
2022-12-13T01:24:53.019Z,50.834835
2022-12-13T01:25:53.035Z,50.834827
2022-12-13T01:26:53.018Z,50.834805
2022-12-13T01:27:53.020Z,50.834816
2022-12-13T01:28:53.001Z,50.834816
2022-12-13T01:29:52.997Z,50.834831
2022-12-13T01:30:53.017Z,50.834805
2022-12-13T01:31:52.983Z,50.834801
2022-12-13T01:32:52.997Z,50.834789
2022-12-13T01:33:52.950Z,50.834801
2022-12-13T01:34:52.970Z,50.834797
2022-12-13T01:35:53.010Z,50.834797
2022-12-13T01:36:52.937Z,50.834801
2022-12-13T01:37:53.931Z,50.834789
2022-12-13T01:38:52.992Z,50.834789
2022-12-13T01:39:53.929Z,50.834782
2022-12-13T01:40:52.894Z,50.834785
2022-12-13T01:41:53.900Z,50.834789
2022-12-13T01:42:52.886Z,50.834789
2022-12-13T01:43:52.899Z,50.834789
2022-12-13T01:44:52.905Z,50.834797
2022-12-13T01:45:52.911Z,50.834824
2022-12-13T01:46:52.857Z,50.834797
2022-12-13T01:47:52.870Z,50.834805
2022-12-13T01:48:52.853Z,50.834789
2022-12-13T01:49:52.857Z,50.834801
2022-12-13T01:50:52.861Z,50.834797
2022-12-13T01:51:52.815Z,50.834782
2022-12-13T01:52:52.839Z,50.834766
2022-12-13T01:53:52.802Z,50.834793
2022-12-13T01:55:24.729Z,50.834774
2022-12-13T01:55:52.790Z,50.834797
2022-12-13T01:56:52.861Z,50.834793
2022-12-13T01:57:53.804Z,50.834793
2022-12-13T01:58:52.783Z,50.834793
2022-12-13T01:59:52.760Z,50.834778
2022-12-13T02:00:52.777Z,50.834785
2022-12-13T02:01:52.761Z,50.834793
2022-12-13T02:02:53.761Z,50.834793
2022-12-13T02:03:52.748Z,50.834797
2022-12-13T02:04:52.800Z,50.834793
2022-12-13T02:05:52.774Z,50.834797
2022-12-13T02:06:52.762Z,50.834789
2022-12-13T02:07:52.778Z,50.834782
2022-12-13T02:08:52.699Z,50.834793
2022-12-13T02:09:56.807Z,50.834785
2022-12-13T02:10:52.744Z,50.834805
2022-12-13T02:11:52.688Z,50.834785
2022-12-13T02:12:52.683Z,50.834782
2022-12-13T02:13:52.659Z,50.834793
2022-12-13T02:14:52.744Z,50.834789
2022-12-13T02:15:52.701Z,50.834797
2022-12-13T02:16:52.660Z,50.834808
2022-12-13T02:17:52.642Z,50.834808
2022-12-13T02:18:52.615Z,50.834812
2022-12-13T02:19:52.650Z,50.834801
2022-12-13T02:20:52.646Z,50.834785
2022-12-13T02:21:52.602Z,50.834782
2022-12-13T02:22:52.616Z,50.834785
2022-12-13T02:23:52.625Z,50.834789
2022-12-13T02:24:52.592Z,50.834805
2022-12-13T02:25:52.593Z,50.834793
2022-12-13T02:26:52.652Z,50.834782
2022-12-13T02:27:52.629Z,50.834785
2022-12-13T02:28:53.587Z,50.834782
2022-12-13T02:29:53.928Z,50.834789
2022-12-13T02:30:52.583Z,50.834782
2022-12-13T02:31:52.540Z,50.834785
2022-12-13T02:32:52.589Z,50.834789
2022-12-13T02:33:52.509Z,50.834805
2022-12-13T02:34:52.542Z,50.834789
2022-12-13T02:35:52.890Z,50.834785
2022-12-13T02:36:52.496Z,50.834797
2022-12-13T02:37:52.506Z,50.834797
2022-12-13T02:38:52.483Z,50.834789
2022-12-13T02:39:52.543Z,50.834782
2022-12-13T02:40:52.483Z,50.834785
2022-12-13T02:41:52.472Z,50.834805
2022-12-13T02:42:52.454Z,50.834789
2022-12-13T02:43:52.464Z,50.834782
2022-12-13T02:44:53.467Z,50.834805
2022-12-13T02:45:52.484Z,50.834820
2022-12-13T02:46:52.467Z,50.834785
2022-12-13T02:47:52.424Z,50.834755
2022-12-13T02:48:52.427Z,50.834766
2022-12-13T02:49:52.413Z,50.834805
2022-12-13T02:50:52.426Z,50.834793
2022-12-13T02:51:52.409Z,50.834831
2022-12-13T02:52:52.386Z,50.834797
2022-12-13T02:53:52.386Z,50.834782
2022-12-13T02:54:52.380Z,50.834850
2022-12-13T02:55:52.381Z,50.834801
2022-12-13T02:56:52.363Z,50.834801
2022-12-13T02:57:52.445Z,50.834778
2022-12-13T02:58:52.356Z,50.834770
2022-12-13T02:59:52.711Z,50.834782
2022-12-13T03:00:52.349Z,50.834763
2022-12-13T03:01:52.375Z,50.834789
2022-12-13T03:02:53.410Z,50.834766
2022-12-13T03:03:52.393Z,50.834770
2022-12-13T03:04:52.296Z,50.834728
2022-12-13T03:05:52.979Z,50.834797
2022-12-13T03:06:52.290Z,50.834782
2022-12-13T03:07:52.336Z,50.834774
2022-12-13T03:08:52.272Z,50.834782
2022-12-13T03:09:52.274Z,50.834797
2022-12-13T03:10:52.279Z,50.834812
2022-12-13T03:11:52.260Z,50.834797
2022-12-13T03:12:52.388Z,50.834808
2022-12-13T03:13:52.236Z,50.834789
2022-12-13T03:14:52.258Z,50.834774
2022-12-13T03:15:52.382Z,50.834774
2022-12-13T03:16:52.216Z,50.834785
2022-12-13T03:17:52.222Z,50.834793
2022-12-13T03:18:52.231Z,50.834785
2022-12-13T03:19:52.196Z,50.834778
2022-12-13T03:20:52.200Z,50.834801
2022-12-13T03:21:52.171Z,50.834801
2022-12-13T03:22:52.170Z,50.834789
2022-12-13T03:23:52.192Z,50.834763
2022-12-13T03:24:52.153Z,50.834805
2022-12-13T03:25:52.162Z,50.834812
2022-12-13T03:27:24.072Z,50.834808
2022-12-13T03:27:52.152Z,50.834789
2022-12-13T03:28:52.192Z,50.834778
2022-12-13T03:29:52.111Z,50.834801
2022-12-13T03:30:52.188Z,50.834805
2022-12-13T03:31:52.127Z,50.834793
2022-12-13T03:32:52.098Z,50.834766
2022-12-13T03:33:52.092Z,50.834782
2022-12-13T03:35:00.697Z,50.834808
2022-12-13T03:35:54.080Z,50.834827
2022-12-13T03:36:52.077Z,50.834805
2022-12-13T03:37:52.048Z,50.834820
2022-12-13T03:38:52.067Z,50.834789
2022-12-13T03:39:52.043Z,50.834782
2022-12-13T03:40:52.060Z,50.834839
2022-12-13T03:41:52.091Z,50.834805
2022-12-13T03:42:52.045Z,50.834778
2022-12-13T03:43:53.012Z,50.834805
2022-12-13T03:44:52.013Z,50.834816
2022-12-13T03:45:52.003Z,50.834766
2022-12-13T03:46:52.048Z,50.834774
2022-12-13T03:47:51.988Z,50.834805
2022-12-13T04:05:14.504Z,50.834793
2022-12-13T04:06:22.438Z,50.834972
2022-12-13T04:07:22.378Z,50.834843
2022-12-13T04:08:22.454Z,50.834805
2022-12-13T04:09:15.200Z,50.834824
2022-12-13T04:10:25.157Z,50.834797
2022-12-13T04:11:15.176Z,50.834843
2022-12-13T04:12:14.168Z,50.834824
2022-12-13T04:13:14.144Z,50.834816
2022-12-13T04:14:21.887Z,50.834839
2022-12-13T04:15:15.513Z,50.834850
2022-12-13T04:16:14.171Z,50.834862
2022-12-13T04:17:14.146Z,50.834900
2022-12-13T04:18:14.117Z,50.834854
2022-12-13T04:19:14.117Z,50.834835
2022-12-13T04:20:14.105Z,50.834839
2022-12-13T04:21:14.087Z,50.834843
2022-12-13T04:22:14.089Z,50.834850
2022-12-13T04:23:14.085Z,50.834846
2022-12-13T04:24:14.087Z,50.834866
2022-12-13T04:25:14.267Z,50.834854
2022-12-13T04:26:14.047Z,50.834850
2022-12-13T04:27:14.047Z,50.834805
2022-12-13T04:28:22.347Z,50.834824
2022-12-13T04:29:15.057Z,50.834843
2022-12-13T04:30:14.057Z,50.834820
2022-12-13T04:31:14.090Z,50.834801
2022-12-13T04:32:25.938Z,50.834801
2022-12-13T04:33:15.066Z,50.834839
2022-12-13T04:34:13.999Z,50.834846
2022-12-13T04:35:14.514Z,50.834835
2022-12-13T04:36:14.006Z,50.834835
2022-12-13T04:37:15.059Z,50.834843
2022-12-13T04:38:13.967Z,50.834846
2022-12-13T04:39:22.562Z,50.834831
2022-12-13T04:40:14.959Z,50.834846
2022-12-13T04:41:14.975Z,50.834827
2022-12-13T04:42:13.927Z,50.834854
2022-12-13T04:43:13.949Z,50.834858
2022-12-13T04:44:28.181Z,50.834850
2022-12-13T04:45:15.262Z,50.834831
2022-12-13T04:46:13.972Z,50.834827
2022-12-13T04:47:13.918Z,50.834839
2022-12-13T04:48:13.895Z,50.834843
2022-12-13T04:49:14.875Z,50.834854
2022-12-13T04:50:13.905Z,50.834824
2022-12-13T04:51:13.910Z,50.834858
2022-12-13T04:52:13.873Z,50.834862
2022-12-13T04:53:14.879Z,50.834846
2022-12-13T04:54:24.658Z,50.834843
2022-12-13T04:55:15.098Z,50.834835
2022-12-13T04:56:13.904Z,50.834824
2022-12-13T04:57:13.847Z,50.834831
2022-12-13T04:58:18.325Z,50.834839
2022-12-13T04:59:14.828Z,50.834835
2022-12-13T05:00:13.798Z,50.834831
2022-12-13T05:01:13.840Z,50.834866
2022-12-13T05:02:13.863Z,50.834866
2022-12-13T05:03:14.801Z,50.834839
2022-12-13T05:04:13.774Z,50.834824
2022-12-13T05:05:14.172Z,50.834839
2022-12-13T05:06:26.698Z,50.834824
2022-12-13T05:07:14.754Z,50.834801
2022-12-13T05:08:13.797Z,50.834835
2022-12-13T05:09:13.769Z,50.834866
2022-12-13T05:10:35.962Z,50.834846
2022-12-13T05:11:14.737Z,50.834839
2022-12-13T05:12:22.684Z,50.834862
2022-12-13T05:13:14.730Z,50.834843
2022-12-13T05:14:13.711Z,50.834816
2022-12-13T05:15:14.111Z,50.834831
2022-12-13T05:16:13.770Z,50.834843
2022-12-13T05:17:13.747Z,50.834820
2022-12-13T05:18:13.690Z,50.834816
2022-12-13T05:19:13.683Z,50.834820
2022-12-13T05:20:13.709Z,50.834824
2022-12-13T05:21:13.656Z,50.834816
2022-12-13T05:22:19.165Z,50.834820
2022-12-13T05:23:22.172Z,50.834820
2022-12-13T05:24:14.627Z,50.834831
2022-12-13T05:25:14.078Z,50.834797
2022-12-13T05:26:13.619Z,50.834816
2022-12-13T05:27:24.994Z,50.834816
2022-12-13T05:28:28.193Z,50.834850
2022-12-13T05:29:14.612Z,50.834846
2022-12-13T05:30:13.590Z,50.834824
2022-12-13T05:31:23.657Z,50.834831
2022-12-13T05:32:14.664Z,50.834827
2022-12-13T05:33:13.589Z,50.834805
2022-12-13T05:34:13.555Z,50.834827
2022-12-13T05:35:45.482Z,50.834843
2022-12-13T05:36:13.554Z,50.834824
2022-12-13T05:37:45.479Z,50.834827
2022-12-13T05:38:13.532Z,50.834835
2022-12-13T05:39:29.373Z,50.834858
2022-12-13T05:40:14.792Z,50.834824
2022-12-13T05:41:13.525Z,50.834846
2022-12-13T05:42:45.415Z,50.834846
2022-12-13T05:43:21.174Z,50.834824
2022-12-13T05:44:14.482Z,50.834824
2022-12-13T05:45:13.847Z,50.834827
2022-12-13T05:46:45.574Z,50.834843
2022-12-13T05:47:13.493Z,50.834805
2022-12-13T05:48:13.489Z,50.834812
2022-12-13T05:49:13.476Z,50.834816
2022-12-13T05:50:45.372Z,50.834835
2022-12-13T05:51:13.448Z,50.834820
2022-12-13T05:52:45.337Z,50.834827
2022-12-13T05:53:13.497Z,50.834824
2022-12-13T05:54:45.373Z,50.834801
2022-12-13T05:55:13.724Z,50.834831
2022-12-13T05:56:13.434Z,50.834820
2022-12-13T05:57:14.419Z,50.834824
2022-12-13T05:58:46.332Z,50.834812
2022-12-13T05:59:14.374Z,50.834816
2022-12-13T06:00:28.917Z,50.834789
2022-12-13T06:01:14.370Z,50.834846
2022-12-13T06:02:16.886Z,50.834835
2022-12-13T06:03:15.549Z,50.834839
2022-12-13T06:04:22.994Z,50.834831
2022-12-13T06:05:14.773Z,50.834820
2022-12-13T06:06:45.240Z,50.834808
2022-12-13T06:07:13.328Z,50.834816
2022-12-13T06:08:24.361Z,50.834835
2022-12-13T06:09:14.331Z,50.834843
2022-12-13T06:10:13.341Z,50.834831
2022-12-13T06:11:31.936Z,50.834843
2022-12-13T06:12:31.861Z,50.834827
2022-12-13T06:13:21.534Z,50.834824
2022-12-13T06:14:21.845Z,50.834820
2022-12-13T06:15:22.664Z,50.834824
2022-12-13T06:16:22.769Z,50.834816
2022-12-13T06:17:14.292Z,50.834820
2022-12-13T06:18:14.261Z,50.834824
2022-12-13T06:19:45.164Z,50.834820
2022-12-13T06:20:23.431Z,50.834839
2022-12-13T06:21:14.264Z,50.834827
2022-12-13T06:22:13.217Z,50.834805
2022-12-13T06:23:13.202Z,50.834820
2022-12-13T06:24:13.226Z,50.834827
2022-12-13T06:25:31.149Z,50.834820
2022-12-13T06:26:14.197Z,50.834839
2022-12-13T06:27:13.201Z,50.834831
2022-12-13T06:28:13.184Z,50.834808
2022-12-13T06:29:13.159Z,50.834831
2022-12-13T06:30:14.173Z,50.834824
2022-12-13T06:31:13.190Z,50.834827
2022-12-13T06:32:13.182Z,50.834866
2022-12-13T06:33:13.397Z,50.834866
2022-12-13T06:34:14.541Z,50.834846
2022-12-13T06:35:28.748Z,50.834827
2022-12-13T06:36:14.124Z,50.834831
2022-12-13T06:37:13.107Z,50.834820
2022-12-13T06:38:13.123Z,50.834839
2022-12-13T06:39:14.103Z,50.834846
2022-12-13T06:40:13.079Z,50.834831
2022-12-13T06:41:13.104Z,50.834839
2022-12-13T06:42:13.079Z,50.834846
2022-12-13T06:43:14.148Z,50.834835
2022-12-13T06:44:13.082Z,50.834831
2022-12-13T06:45:13.047Z,50.834835
2022-12-13T06:46:13.523Z,50.834839
2022-12-13T06:47:13.068Z,50.834831
2022-12-13T06:48:18.754Z,50.834824
2022-12-13T06:49:15.019Z,50.834835
2022-12-13T06:50:13.067Z,50.834843
2022-12-13T06:51:13.003Z,50.834831
2022-12-13T06:52:14.092Z,50.834824
2022-12-13T06:53:12.999Z,50.834824
2022-12-13T06:54:12.973Z,50.834843
2022-12-13T06:55:12.985Z,50.834854
2022-12-13T06:56:12.984Z,50.834850
2022-12-13T06:57:12.974Z,50.834839
2022-12-13T06:58:12.958Z,50.834850
2022-12-13T06:59:12.965Z,50.834827
2022-12-13T07:00:12.972Z,50.834843
2022-12-13T07:01:14.567Z,50.834831
2022-12-13T07:02:25.233Z,50.834835
2022-12-13T07:03:13.974Z,50.834816
2022-12-13T07:04:29.957Z,50.834831
2022-12-13T07:05:13.958Z,50.834843
2022-12-13T07:06:12.902Z,50.834835
2022-12-13T07:07:12.891Z,50.834846
2022-12-13T07:08:12.913Z,50.834846
2022-12-13T07:09:13.886Z,50.834843
2022-12-13T07:10:22.654Z,50.834824
2022-12-13T07:11:13.886Z,50.834831
2022-12-13T07:12:12.885Z,50.834812
2022-12-13T07:13:12.910Z,50.834816
2022-12-13T07:14:12.867Z,50.834808
2022-12-13T07:15:12.829Z,50.834824
2022-12-13T07:16:12.924Z,50.834824
2022-12-13T07:17:12.818Z,50.834831
2022-12-13T07:18:13.817Z,50.834820
2022-12-13T07:19:22.536Z,50.834827
2022-12-13T07:20:13.789Z,50.834824
2022-12-13T07:21:21.568Z,50.834831
2022-12-13T07:22:13.803Z,50.834831
2022-12-13T07:23:12.778Z,50.834816
2022-12-13T07:24:12.754Z,50.834820
2022-12-13T07:25:28.235Z,50.834831
2022-12-13T07:26:17.454Z,50.834843
2022-12-13T07:27:12.797Z,50.834827
2022-12-13T07:28:12.749Z,50.834835
2022-12-13T07:29:12.718Z,50.834843
2022-12-13T07:30:13.747Z,50.834839
2022-12-13T07:31:12.766Z,50.834854
2022-12-13T07:32:12.710Z,50.834850
2022-12-13T07:33:12.736Z,50.834854
2022-12-13T07:34:15.698Z,50.834801
2022-12-13T07:35:13.720Z,50.834831
2022-12-13T07:36:12.682Z,50.834816
2022-12-13T07:37:30.350Z,50.834824
2022-12-13T07:38:13.661Z,50.834820
2022-12-13T07:39:12.668Z,50.834816
2022-12-13T07:40:12.642Z,50.834827
2022-12-13T07:41:12.705Z,50.834808
2022-12-13T07:42:13.655Z,50.834797
2022-12-13T07:43:12.648Z,50.834808
2022-12-13T07:44:12.636Z,50.834835
2022-12-13T07:45:12.627Z,50.834824
2022-12-13T07:46:12.671Z,50.834812
2022-12-13T07:47:12.615Z,50.834785
2022-12-13T07:48:12.592Z,50.834797
2022-12-13T07:49:12.616Z,50.834785
2022-12-13T07:50:23.939Z,50.834820
2022-12-13T07:51:13.616Z,50.834820
2022-12-13T07:52:12.622Z,50.834801
2022-12-13T07:53:12.577Z,50.834827
2022-12-13T07:54:12.589Z,50.834839
2022-12-13T07:55:12.550Z,50.834805
2022-12-13T07:56:12.575Z,50.834812
2022-12-13T07:57:12.539Z,50.834793
2022-12-13T07:58:13.121Z,50.834812
2022-12-13T07:59:12.524Z,50.834793
2022-12-13T08:00:13.543Z,50.834808
2022-12-13T08:01:12.510Z,50.834793
2022-12-13T08:02:12.541Z,50.834797
2022-12-13T08:03:24.463Z,50.834785
2022-12-13T08:04:14.505Z,50.834789
2022-12-13T08:05:25.971Z,50.834812
2022-12-13T08:06:13.461Z,50.834789
2022-12-13T08:07:12.461Z,50.834812
2022-12-13T08:08:13.547Z,50.834816
2022-12-13T08:09:12.463Z,50.834805
2022-12-13T08:10:12.479Z,50.834812
2022-12-13T08:11:12.411Z,50.834789
2022-12-13T08:12:12.433Z,50.834801
2022-12-13T11:49:21.766Z,50.834785
2022-12-13T11:50:32.952Z,50.834827
2022-12-13T11:51:23.132Z,50.834812
2022-12-13T11:52:21.127Z,50.834808
2022-12-13T11:53:21.147Z,50.834820
2022-12-13T11:54:23.871Z,50.834831
2022-12-13T11:55:21.122Z,50.834824
2022-12-13T11:56:21.083Z,50.834835
2022-12-13T11:57:21.096Z,50.834820
2022-12-13T11:58:38.837Z,50.834831
2022-12-13T11:59:26.834Z,50.834835
2022-12-13T12:00:34.014Z,50.834824
2022-12-13T12:01:22.080Z,50.834805
2022-12-13T12:02:21.745Z,50.834789
2022-12-13T12:03:21.096Z,50.834827
2022-12-13T12:04:21.031Z,50.834801
2022-12-13T12:05:21.025Z,50.834824
2022-12-13T12:06:21.020Z,50.834812
2022-12-13T12:07:36.445Z,50.834763
2022-12-13T12:08:31.688Z,50.834747
2022-12-13T12:09:23.012Z,50.834698
2022-12-13T12:10:21.069Z,50.834789
2022-12-13T12:11:21.018Z,50.834782
2022-12-13T12:12:22.258Z,50.834785
2022-12-13T12:13:20.975Z,50.834812
2022-12-13T12:14:20.975Z,50.834774
2022-12-13T12:15:27.047Z,50.834789
2022-12-13T12:16:21.979Z,50.834785
2022-12-13T12:17:20.927Z,50.834805
2022-12-13T12:18:20.916Z,50.834732
2022-12-13T12:19:21.080Z,50.834763
2022-12-13T12:20:23.502Z,50.834763
2022-12-13T12:21:20.890Z,50.834808
2022-12-13T12:22:20.969Z,50.834831
2022-12-13T12:23:20.885Z,50.834801
2022-12-13T12:24:20.879Z,50.834797
2022-12-13T12:25:21.563Z,50.834805
2022-12-13T12:26:20.880Z,50.834782
2022-12-13T12:27:22.530Z,50.834785
2022-12-13T12:28:20.841Z,50.834782
2022-12-13T12:29:20.926Z,50.834778
2022-12-13T12:30:23.478Z,50.834789
2022-12-13T12:31:21.820Z,50.834797
2022-12-13T12:32:20.841Z,50.834801
2022-12-13T12:33:21.694Z,50.834805
2022-12-13T12:34:27.028Z,50.834774
2022-12-13T12:35:21.839Z,50.834820
2022-12-13T12:36:20.788Z,50.834824
2022-12-13T12:37:20.761Z,50.834808
2022-12-13T12:38:20.757Z,50.834805
2022-12-13T12:39:20.783Z,50.834793
2022-12-13T12:40:21.766Z,50.834812
2022-12-13T12:41:20.741Z,50.834808
2022-12-13T12:42:20.734Z,50.834782
2022-12-13T12:43:20.731Z,50.834793
2022-12-13T12:44:20.731Z,50.834797
2022-12-13T12:45:54.526Z,50.834816
2022-12-13T12:46:22.806Z,50.834820
2022-12-13T12:48:25.258Z,50.834805
2022-12-13T12:48:50.888Z,50.834824
2022-12-13T12:49:22.878Z,50.834793
2022-12-13T12:50:20.676Z,50.834820
2022-12-13T12:51:20.681Z,50.834801
2022-12-13T12:52:20.658Z,50.834793
2022-12-13T12:53:20.644Z,50.834816
2022-12-13T12:54:20.657Z,50.834808
2022-12-13T12:55:20.624Z,50.834759
2022-12-13T12:56:20.610Z,50.834759
2022-12-13T12:57:20.620Z,50.834778
2022-12-13T12:58:20.637Z,50.834805
2022-12-13T12:59:20.630Z,50.834797
2022-12-13T13:00:20.615Z,50.834801
2022-12-13T13:01:20.736Z,50.834778
2022-12-13T13:02:21.309Z,50.834785
2022-12-13T13:03:26.805Z,50.834789
2022-12-13T13:04:23.112Z,50.834805
2022-12-13T13:05:20.558Z,50.834820
2022-12-13T13:06:20.582Z,50.834827
2022-12-13T13:07:22.527Z,50.834801
2022-12-13T13:08:21.218Z,50.834816
2022-12-13T13:09:24.724Z,50.834808
2022-12-13T13:10:26.890Z,50.834808
2022-12-13T13:11:24.468Z,50.834824
2022-12-13T13:12:29.415Z,50.834816
2022-12-13T13:13:32.799Z,50.834835
2022-12-13T13:14:21.489Z,50.834831
2022-12-13T13:15:20.504Z,50.834808
2022-12-13T13:16:21.839Z,50.834789
2022-12-13T13:17:20.453Z,50.834797
2022-12-13T13:18:22.470Z,50.834778
2022-12-13T13:19:25.513Z,50.834785
2022-12-13T13:20:21.536Z,50.834801
2022-12-13T13:21:20.436Z,50.834766
2022-12-13T13:22:31.458Z,50.834797
2022-12-13T13:23:39.972Z,50.834770
2022-12-13T13:24:22.419Z,50.834782
2022-12-13T13:25:20.412Z,50.834782
2022-12-13T13:26:32.756Z,50.834759
2022-12-13T13:27:23.072Z,50.834835
2022-12-13T13:28:21.220Z,50.834820
2022-12-13T13:29:27.746Z,50.834782
2022-12-13T13:30:21.412Z,50.834789
2022-12-13T13:31:21.356Z,50.834835
2022-12-13T13:32:28.044Z,50.834801
2022-12-13T13:33:21.435Z,50.834778
2022-12-13T13:34:22.163Z,50.834793
2022-12-13T13:35:20.354Z,50.834782
2022-12-13T13:36:29.142Z,50.834801
2022-12-13T13:37:23.113Z,50.834801
2022-12-13T13:38:21.308Z,50.834797
2022-12-13T13:39:20.295Z,50.834782
2022-12-13T13:40:30.611Z,50.834770
2022-12-13T13:41:21.288Z,50.834774
2022-12-13T13:42:20.329Z,50.834785
2022-12-13T13:43:20.266Z,50.834774
2022-12-13T13:44:23.069Z,50.834751
2022-12-13T13:45:22.204Z,50.834751
2022-12-13T13:46:20.297Z,50.834747
2022-12-13T13:47:20.776Z,50.834778
2022-12-13T13:48:20.238Z,50.834770
2022-12-13T13:49:20.210Z,50.834778
2022-12-13T13:50:20.206Z,50.834759
2022-12-13T13:51:20.218Z,50.834766
2022-12-13T13:52:27.552Z,50.834797
2022-12-13T13:53:22.492Z,50.834789
2022-12-13T13:54:20.201Z,50.834774
2022-12-13T13:55:20.165Z,50.834770
2022-12-13T13:56:20.170Z,50.834763
2022-12-13T13:57:22.388Z,50.834778
2022-12-13T13:58:22.260Z,50.834793
2022-12-13T13:59:20.398Z,50.834801
2022-12-13T14:00:20.139Z,50.834820
2022-12-13T14:01:20.211Z,50.834801
2022-12-13T14:02:20.195Z,50.834763
2022-12-13T14:03:29.116Z,50.834770
2022-12-13T14:04:22.637Z,50.834782
2022-12-13T14:05:20.098Z,50.834770
2022-12-13T14:06:20.101Z,50.834797
2022-12-13T14:07:26.404Z,50.834801
2022-12-13T14:08:22.105Z,50.834782
2022-12-13T14:09:20.138Z,50.834782
2022-12-13T14:10:20.090Z,50.834770
2022-12-13T14:11:20.081Z,50.834793
2022-12-13T14:12:20.579Z,50.834797
2022-12-13T14:13:20.114Z,50.834770
2022-12-13T14:14:21.964Z,50.834774
2022-12-13T14:15:20.025Z,50.834755
2022-12-13T14:16:20.138Z,50.834770
2022-12-13T14:17:21.031Z,50.834778
2022-12-13T14:18:21.418Z,50.834778
2022-12-13T14:19:19.980Z,50.834759
2022-12-13T14:20:20.030Z,50.834774
2022-12-13T14:21:20.592Z,50.834789
2022-12-13T14:22:19.985Z,50.834770
2022-12-13T14:23:21.858Z,50.834763
2022-12-13T14:24:19.960Z,50.834785
2022-12-13T14:25:19.945Z,50.834782
2022-12-13T14:26:19.942Z,50.834766
2022-12-13T14:27:20.012Z,50.834743
2022-12-13T14:28:20.012Z,50.834770
2022-12-13T14:29:19.918Z,50.834759
2022-12-13T14:30:28.237Z,50.834770
2022-12-13T14:31:22.328Z,50.834763
2022-12-13T14:32:51.806Z,50.834759
2022-12-13T14:33:19.887Z,50.834755
2022-12-13T14:34:19.873Z,50.834755
2022-12-13T14:35:26.212Z,50.834759
2022-12-13T14:36:20.881Z,50.834751
2022-12-13T14:37:19.964Z,50.834747
2022-12-13T14:38:19.857Z,50.834766
2022-12-13T14:39:24.964Z,50.834759
2022-12-13T14:40:20.851Z,50.834793
2022-12-13T14:41:19.838Z,50.834766
2022-12-13T14:42:19.858Z,50.834770
2022-12-13T14:43:23.975Z,50.834751
2022-12-13T14:44:19.793Z,50.834755
2022-12-13T14:45:19.844Z,50.834751
2022-12-13T14:46:19.833Z,50.834755
2022-12-13T14:47:19.815Z,50.834770
2022-12-13T14:48:28.784Z,50.834763
2022-12-13T14:49:20.779Z,50.834766
2022-12-13T14:50:21.604Z,50.834751
2022-12-13T14:51:19.764Z,50.834759
2022-12-13T14:52:26.065Z,50.834763
2022-12-13T14:53:20.826Z,50.834736
2022-12-13T14:54:25.504Z,50.834732
2022-12-13T14:55:21.742Z,50.834759
2022-12-13T14:56:27.730Z,50.834763
2022-12-13T14:57:20.699Z,50.834751
2022-12-13T14:58:19.691Z,50.834747
2022-12-13T14:59:20.687Z,50.834759
2022-12-13T15:00:19.739Z,50.834766
2022-12-13T15:01:19.723Z,50.834759
2022-12-13T15:02:31.030Z,50.834766
2022-12-13T15:03:20.674Z,50.834774
2022-12-13T15:04:19.742Z,50.834785
2022-12-13T15:05:28.387Z,50.834770
2022-12-13T15:06:20.678Z,50.834782
2022-12-13T15:07:20.120Z,50.834797
2022-12-13T15:08:19.658Z,50.834778
2022-12-13T15:09:20.379Z,50.834766
2022-12-13T15:10:19.662Z,50.834782
2022-12-13T15:11:20.108Z,50.834774
2022-12-13T15:12:24.718Z,50.834759
2022-12-13T15:13:21.108Z,50.834763
2022-12-13T15:14:19.590Z,50.834820
2022-12-13T15:15:19.597Z,50.834854
2022-12-13T15:16:19.615Z,50.834812
2022-12-13T15:17:19.578Z,50.834831